Portada
METAR-TAF:

METAR-TAF

Aeropuertos :

Aeropuerto de Tánger-Ibn Battuta

Tánger, Marruecos

latitud: 35-44N, longitud: 005-54W, altitud: 19 m

Observación

El informe se hizo hace 13 minutos, a las 08:00 UTC
Viento 5 kt del sur-suroeste
Temperatura 22°C
Humedad 69%
Presión 1016 hPa
Visibilidad 10 km o más
Nubes dispersas a una altura de 1300 ft

METAR: GMTT 140800Z 20005KT 9999 SCT013 22/16 Q1016 NOSIG

Hora: 09:13 (08:13 UTC)

Pronóstico

El informe se hizo hace 3 horas y 13 minutos, a las 05:00 UTC
Pronóstico válido del 14 a las 06 UTC al 15 a las 12 UTC
Viento 2 kt con dirección variable
Visibilidad: 8000 m
Nubes dispersas a una altura de 1300 ft
Evolucionando progresivamente
del 14 a las 09 UTC al 14 a las 12 UTC
Viento 12 kt del oeste
Probabilidad 40%
del 15 a las 00 UTC al 15 a las 09 UTC
Viento 2 kt con dirección variable
Visibilidad: 4000 m
neblina

TAF: GMTT 140500Z 1406/1512 VRB02KT 8000 SCT013 BECMG 1409/1412 26012KT PROB40 1500/1509 VRB02KT 4000 BR

Observaciones y pronósticos meteorológicos de más de 4000 aeropuertos (mensajes METAR y TAF).

Los puntos amarillos y rojos representan las estaciones disponibles.

Ponga el ratón en el punto deseado para ver el nombre de la estación.

Haga clic para ver las observaciones y los pronósticos meteorológicos.

Para cambiar el mapa : haga clic en los botones verdes con una cruz de color negro para hacer un zoom, en el botón verde con un guión para alejar o en las flechas verdes para mapas adyacentes.


METAR-TAF: